sensor_id;sensor_type;location;lat;lon;timestamp;P1;durP1;ratioP1;P2;durP2;ratioP2
13683;SDS011;6914;53.552;9.908;2024-01-30T00:00:21;16.93;;;12.73;;
13683;SDS011;6914;53.552;9.908;2024-01-30T00:02:49;20.03;;;13.77;;
13683;SDS011;6914;53.552;9.908;2024-01-30T00:05:15;27.27;;;13.97;;
13683;SDS011;6914;53.552;9.908;2024-01-30T00:07:44;25.47;;;13.60;;
13683;SDS011;6914;53.552;9.908;2024-01-30T00:10:12;21.27;;;13.00;;
13683;SDS011;6914;53.552;9.908;2024-01-30T00:12:39;19.97;;;13.40;;
13683;SDS011;6914;53.552;9.908;2024-01-30T00:15:06;20.40;;;13.47;;
13683;SDS011;6914;53.552;9.908;2024-01-30T00:17:34;19.00;;;12.77;;
13683;SDS011;6914;53.552;9.908;2024-01-30T00:20:02;15.20;;;12.87;;
13683;SDS011;6914;53.552;9.908;2024-01-30T00:22:30;19.00;;;13.90;;
13683;SDS011;6914;53.552;9.908;2024-01-30T00:24:59;19.47;;;12.57;;
13683;SDS011;6914;53.552;9.908;2024-01-30T00:27:26;17.43;;;13.23;;
13683;SDS011;6914;53.552;9.908;2024-01-30T00:29:53;21.50;;;14.10;;
13683;SDS011;6914;53.552;9.908;2024-01-30T00:32:20;17.00;;;12.20;;
13683;SDS011;6914;53.552;9.908;2024-01-30T00:34:48;21.10;;;13.23;;
13683;SDS011;6914;53.552;9.908;2024-01-30T00:37:15;20.10;;;13.50;;
13683;SDS011;6914;53.552;9.908;2024-01-30T00:39:42;22.00;;;11.70;;
13683;SDS011;6914;53.552;9.908;2024-01-30T00:42:10;24.53;;;13.50;;
13683;SDS011;6914;53.552;9.908;2024-01-30T00:44:37;15.57;;;11.93;;
13683;SDS011;6914;53.552;9.908;2024-01-30T00:47:04;20.13;;;13.57;;
13683;SDS011;6914;53.552;9.908;2024-01-30T00:49:31;22.47;;;13.47;;
13683;SDS011;6914;53.552;9.908;2024-01-30T00:51:58;18.10;;;13.17;;
13683;SDS011;6914;53.552;9.908;2024-01-30T00:54:24;20.77;;;13.77;;
13683;SDS011;6914;53.552;9.908;2024-01-30T00:56:52;14.40;;;12.87;;
13683;SDS011;6914;53.552;9.908;2024-01-30T00:59:20;24.43;;;12.60;;
13683;SDS011;6914;53.552;9.908;2024-01-30T01:01:47;17.07;;;12.47;;
13683;SDS011;6914;53.552;9.908;2024-01-30T01:04:13;17.53;;;12.40;;
13683;SDS011;6914;53.552;9.908;2024-01-30T01:06:40;18.87;;;13.30;;
13683;SDS011;6914;53.552;9.908;2024-01-30T01:09:09;17.10;;;12.97;;
13683;SDS011;6914;53.552;9.908;2024-01-30T01:11:36;17.17;;;12.00;;
13683;SDS011;6914;53.552;9.908;2024-01-30T01:14:04;21.20;;;13.40;;
13683;SDS011;6914;53.552;9.908;2024-01-30T01:16:32;14.17;;;11.10;;
13683;SDS011;6914;53.552;9.908;2024-01-30T01:18:59;16.10;;;12.80;;
13683;SDS011;6914;53.552;9.908;2024-01-30T01:21:26;18.00;;;14.00;;
13683;SDS011;6914;53.552;9.908;2024-01-30T01:23:53;24.80;;;12.93;;
13683;SDS011;6914;53.552;9.908;2024-01-30T01:26:20;21.00;;;14.17;;
13683;SDS011;6914;53.552;9.908;2024-01-30T01:28:47;22.30;;;15.60;;
13683;SDS011;6914;53.552;9.908;2024-01-30T01:31:14;23.37;;;14.17;;
13683;SDS011;6914;53.552;9.908;2024-01-30T01:33:44;21.83;;;14.73;;
13683;SDS011;6914;53.552;9.908;2024-01-30T01:36:11;24.90;;;15.40;;
13683;SDS011;6914;53.552;9.908;2024-01-30T01:38:38;17.03;;;13.30;;
13683;SDS011;6914;53.552;9.908;2024-01-30T01:41:05;25.13;;;14.67;;
13683;SDS011;6914;53.552;9.908;2024-01-30T01:43:32;28.67;;;14.37;;
13683;SDS011;6914;53.552;9.908;2024-01-30T01:46:00;16.33;;;13.53;;
13683;SDS011;6914;53.552;9.908;2024-01-30T01:48:28;19.97;;;14.07;;
13683;SDS011;6914;53.552;9.908;2024-01-30T01:50:57;20.63;;;13.80;;
13683;SDS011;6914;53.552;9.908;2024-01-30T01:53:25;23.93;;;14.03;;
13683;SDS011;6914;53.552;9.908;2024-01-30T01:55:52;22.37;;;13.57;;
13683;SDS011;6914;53.552;9.908;2024-01-30T01:58:21;31.00;;;13.77;;
13683;SDS011;6914;53.552;9.908;2024-01-30T02:00:49;18.93;;;12.87;;
13683;SDS011;6914;53.552;9.908;2024-01-30T02:03:17;18.37;;;12.83;;
13683;SDS011;6914;53.552;9.908;2024-01-30T02:05:46;23.90;;;13.97;;
13683;SDS011;6914;53.552;9.908;2024-01-30T02:08:15;18.90;;;13.40;;
13683;SDS011;6914;53.552;9.908;2024-01-30T02:10:42;15.53;;;12.47;;
13683;SDS011;6914;53.552;9.908;2024-01-30T02:13:09;16.23;;;12.67;;
13683;SDS011;6914;53.552;9.908;2024-01-30T02:15:36;21.67;;;14.03;;
13683;SDS011;6914;53.552;9.908;2024-01-30T02:18:03;22.10;;;15.60;;
13683;SDS011;6914;53.552;9.908;2024-01-30T02:20:30;18.77;;;13.83;;
13683;SDS011;6914;53.552;9.908;2024-01-30T02:23:02;24.27;;;13.63;;
13683;SDS011;6914;53.552;9.908;2024-01-30T02:25:30;18.87;;;12.97;;
13683;SDS011;6914;53.552;9.908;2024-01-30T02:27:57;15.93;;;12.40;;
13683;SDS011;6914;53.552;9.908;2024-01-30T02:30:24;17.93;;;11.73;;
13683;SDS011;6914;53.552;9.908;2024-01-30T02:32:51;16.50;;;10.73;;
13683;SDS011;6914;53.552;9.908;2024-01-30T02:35:20;17.90;;;12.10;;
13683;SDS011;6914;53.552;9.908;2024-01-30T02:37:47;17.00;;;12.30;;
13683;SDS011;6914;53.552;9.908;2024-01-30T02:40:15;18.60;;;13.17;;
13683;SDS011;6914;53.552;9.908;2024-01-30T02:42:42;14.07;;;11.50;;
13683;SDS011;6914;53.552;9.908;2024-01-30T02:45:10;20.23;;;13.13;;
13683;SDS011;6914;53.552;9.908;2024-01-30T02:47:38;14.33;;;10.00;;
13683;SDS011;6914;53.552;9.908;2024-01-30T02:50:05;18.53;;;11.03;;
13683;SDS011;6914;53.552;9.908;2024-01-30T02:52:32;17.03;;;11.50;;
13683;SDS011;6914;53.552;9.908;2024-01-30T02:54:59;15.73;;;11.27;;
13683;SDS011;6914;53.552;9.908;2024-01-30T02:57:28;21.43;;;10.67;;
13683;SDS011;6914;53.552;9.908;2024-01-30T02:59:55;13.30;;;10.90;;
13683;SDS011;6914;53.552;9.908;2024-01-30T03:02:22;17.23;;;11.40;;
13683;SDS011;6914;53.552;9.908;2024-01-30T03:04:49;14.67;;;10.57;;
13683;SDS011;6914;53.552;9.908;2024-01-30T03:07:16;15.07;;;10.73;;
13683;SDS011;6914;53.552;9.908;2024-01-30T03:09:44;15.70;;;10.57;;
13683;SDS011;6914;53.552;9.908;2024-01-30T03:12:11;12.90;;;11.60;;
13683;SDS011;6914;53.552;9.908;2024-01-30T03:14:39;36.70;;;11.77;;
13683;SDS011;6914;53.552;9.908;2024-01-30T03:17:07;15.23;;;11.50;;
13683;SDS011;6914;53.552;9.908;2024-01-30T03:19:34;10.77;;;9.77;;
13683;SDS011;6914;53.552;9.908;2024-01-30T03:22:01;15.00;;;11.00;;
13683;SDS011;6914;53.552;9.908;2024-01-30T03:24:28;14.23;;;12.23;;
13683;SDS011;6914;53.552;9.908;2024-01-30T03:26:55;13.60;;;10.80;;
13683;SDS011;6914;53.552;9.908;2024-01-30T03:29:23;18.33;;;12.73;;
13683;SDS011;6914;53.552;9.908;2024-01-30T03:31:51;17.53;;;11.87;;
13683;SDS011;6914;53.552;9.908;2024-01-30T03:34:19;26.23;;;11.53;;
13683;SDS011;6914;53.552;9.908;2024-01-30T03:36:46;17.37;;;11.03;;
13683;SDS011;6914;53.552;9.908;2024-01-30T03:39:14;15.10;;;12.57;;
13683;SDS011;6914;53.552;9.908;2024-01-30T03:41:42;18.40;;;11.10;;
13683;SDS011;6914;53.552;9.908;2024-01-30T03:44:09;14.03;;;11.30;;
13683;SDS011;6914;53.552;9.908;2024-01-30T03:46:36;21.23;;;12.37;;
13683;SDS011;6914;53.552;9.908;2024-01-30T03:49:05;20.80;;;12.47;;
13683;SDS011;6914;53.552;9.908;2024-01-30T03:51:32;18.13;;;11.80;;
13683;SDS011;6914;53.552;9.908;2024-01-30T03:54:00;18.90;;;12.10;;
13683;SDS011;6914;53.552;9.908;2024-01-30T03:56:27;18.40;;;13.03;;
13683;SDS011;6914;53.552;9.908;2024-01-30T03:58:54;15.70;;;12.77;;
13683;SDS011;6914;53.552;9.908;2024-01-30T04:01:22;20.33;;;12.60;;
13683;SDS011;6914;53.552;9.908;2024-01-30T04:03:48;13.80;;;11.93;;
13683;SDS011;6914;53.552;9.908;2024-01-30T04:06:20;20.70;;;13.17;;
13683;SDS011;6914;53.552;9.908;2024-01-30T04:08:47;14.53;;;10.80;;
13683;SDS011;6914;53.552;9.908;2024-01-30T04:11:15;18.93;;;12.53;;
13683;SDS011;6914;53.552;9.908;2024-01-30T04:13:44;22.63;;;13.30;;
13683;SDS011;6914;53.552;9.908;2024-01-30T04:16:18;20.33;;;12.23;;
13683;SDS011;6914;53.552;9.908;2024-01-30T04:18:46;15.83;;;11.93;;
13683;SDS011;6914;53.552;9.908;2024-01-30T04:21:12;16.03;;;11.80;;
13683;SDS011;6914;53.552;9.908;2024-01-30T04:23:41;14.63;;;11.70;;
13683;SDS011;6914;53.552;9.908;2024-01-30T04:26:08;17.30;;;12.20;;
13683;SDS011;6914;53.552;9.908;2024-01-30T04:28:35;17.10;;;11.73;;
13683;SDS011;6914;53.552;9.908;2024-01-30T04:31:03;13.23;;;10.63;;
13683;SDS011;6914;53.552;9.908;2024-01-30T04:33:30;12.80;;;11.30;;
13683;SDS011;6914;53.552;9.908;2024-01-30T04:35:57;17.17;;;12.30;;
13683;SDS011;6914;53.552;9.908;2024-01-30T04:38:24;16.50;;;11.70;;
13683;SDS011;6914;53.552;9.908;2024-01-30T04:40:52;16.60;;;12.43;;
13683;SDS011;6914;53.552;9.908;2024-01-30T04:43:19;12.60;;;11.30;;
13683;SDS011;6914;53.552;9.908;2024-01-30T04:45:46;16.27;;;12.30;;
13683;SDS011;6914;53.552;9.908;2024-01-30T04:48:13;21.00;;;12.90;;
13683;SDS011;6914;53.552;9.908;2024-01-30T04:50:40;21.33;;;13.63;;
13683;SDS011;6914;53.552;9.908;2024-01-30T04:53:07;20.60;;;13.53;;
13683;SDS011;6914;53.552;9.908;2024-01-30T04:55:34;19.67;;;13.17;;
13683;SDS011;6914;53.552;9.908;2024-01-30T04:58:03;27.43;;;13.50;;
13683;SDS011;6914;53.552;9.908;2024-01-30T05:00:30;16.87;;;12.97;;
13683;SDS011;6914;53.552;9.908;2024-01-30T05:02:57;16.70;;;12.80;;
13683;SDS011;6914;53.552;9.908;2024-01-30T05:05:24;19.50;;;14.10;;
13683;SDS011;6914;53.552;9.908;2024-01-30T05:07:51;17.13;;;13.80;;
13683;SDS011;6914;53.552;9.908;2024-01-30T05:10:18;18.70;;;13.90;;
13683;SDS011;6914;53.552;9.908;2024-01-30T05:12:45;18.03;;;13.40;;
13683;SDS011;6914;53.552;9.908;2024-01-30T05:15:13;24.57;;;14.70;;
13683;SDS011;6914;53.552;9.908;2024-01-30T05:17:40;21.13;;;13.63;;
13683;SDS011;6914;53.552;9.908;2024-01-30T05:20:07;24.90;;;14.40;;
13683;SDS011;6914;53.552;9.908;2024-01-30T05:22:35;23.47;;;14.00;;
13683;SDS011;6914;53.552;9.908;2024-01-30T05:25:02;17.30;;;14.60;;
13683;SDS011;6914;53.552;9.908;2024-01-30T05:27:31;19.77;;;15.03;;
13683;SDS011;6914;53.552;9.908;2024-01-30T05:29:58;16.70;;;13.90;;
13683;SDS011;6914;53.552;9.908;2024-01-30T05:32:26;29.23;;;15.30;;
13683;SDS011;6914;53.552;9.908;2024-01-30T05:34:53;17.93;;;14.30;;
13683;SDS011;6914;53.552;9.908;2024-01-30T05:37:19;17.37;;;14.07;;
13683;SDS011;6914;53.552;9.908;2024-01-30T05:39:46;21.13;;;15.30;;
13683;SDS011;6914;53.552;9.908;2024-01-30T05:42:13;28.33;;;16.17;;
13683;SDS011;6914;53.552;9.908;2024-01-30T05:44:40;22.67;;;13.73;;
13683;SDS011;6914;53.552;9.908;2024-01-30T05:47:06;21.83;;;14.60;;
13683;SDS011;6914;53.552;9.908;2024-01-30T05:49:35;21.10;;;14.60;;
13683;SDS011;6914;53.552;9.908;2024-01-30T05:52:02;20.17;;;14.87;;
13683;SDS011;6914;53.552;9.908;2024-01-30T05:54:29;23.30;;;15.80;;
13683;SDS011;6914;53.552;9.908;2024-01-30T05:56:56;19.33;;;14.10;;
13683;SDS011;6914;53.552;9.908;2024-01-30T05:59:23;20.33;;;15.30;;
13683;SDS011;6914;53.552;9.908;2024-01-30T06:01:50;21.47;;;14.87;;
13683;SDS011;6914;53.552;9.908;2024-01-30T06:04:16;23.27;;;15.27;;
13683;SDS011;6914;53.552;9.908;2024-01-30T06:06:45;27.43;;;15.50;;
13683;SDS011;6914;53.552;9.908;2024-01-30T06:09:11;18.60;;;14.80;;
13683;SDS011;6914;53.552;9.908;2024-01-30T06:11:39;21.57;;;15.63;;
13683;SDS011;6914;53.552;9.908;2024-01-30T06:14:06;25.50;;;16.87;;
13683;SDS011;6914;53.552;9.908;2024-01-30T06:16:33;18.50;;;14.80;;
13683;SDS011;6914;53.552;9.908;2024-01-30T06:18:59;25.93;;;14.30;;
13683;SDS011;6914;53.552;9.908;2024-01-30T06:21:26;20.00;;;14.57;;
13683;SDS011;6914;53.552;9.908;2024-01-30T06:23:55;27.10;;;15.10;;
13683;SDS011;6914;53.552;9.908;2024-01-30T06:26:22;23.60;;;15.03;;
13683;SDS011;6914;53.552;9.908;2024-01-30T06:28:49;25.90;;;16.20;;
13683;SDS011;6914;53.552;9.908;2024-01-30T06:31:16;25.10;;;16.50;;
13683;SDS011;6914;53.552;9.908;2024-01-30T06:33:46;32.90;;;16.70;;
13683;SDS011;6914;53.552;9.908;2024-01-30T06:36:13;21.87;;;16.57;;
13683;SDS011;6914;53.552;9.908;2024-01-30T06:38:40;25.27;;;16.90;;
13683;SDS011;6914;53.552;9.908;2024-01-30T06:41:09;24.53;;;16.13;;
13683;SDS011;6914;53.552;9.908;2024-01-30T06:43:36;24.50;;;14.90;;
13683;SDS011;6914;53.552;9.908;2024-01-30T06:46:03;23.17;;;15.93;;
13683;SDS011;6914;53.552;9.908;2024-01-30T06:48:30;26.33;;;16.03;;
13683;SDS011;6914;53.552;9.908;2024-01-30T06:50:57;39.80;;;16.73;;
13683;SDS011;6914;53.552;9.908;2024-01-30T06:53:23;24.30;;;16.60;;
13683;SDS011;6914;53.552;9.908;2024-01-30T06:55:51;22.83;;;16.30;;
13683;SDS011;6914;53.552;9.908;2024-01-30T06:58:19;31.33;;;16.00;;
13683;SDS011;6914;53.552;9.908;2024-01-30T07:00:46;27.60;;;15.80;;
13683;SDS011;6914;53.552;9.908;2024-01-30T07:03:13;20.17;;;15.87;;
13683;SDS011;6914;53.552;9.908;2024-01-30T07:05:40;21.57;;;15.67;;
13683;SDS011;6914;53.552;9.908;2024-01-30T07:08:07;22.83;;;15.80;;
13683;SDS011;6914;53.552;9.908;2024-01-30T07:10:34;28.13;;;17.87;;
13683;SDS011;6914;53.552;9.908;2024-01-30T07:13:01;26.83;;;16.70;;
13683;SDS011;6914;53.552;9.908;2024-01-30T07:15:30;32.27;;;16.20;;
13683;SDS011;6914;53.552;9.908;2024-01-30T07:17:57;24.33;;;17.80;;
13683;SDS011;6914;53.552;9.908;2024-01-30T07:20:24;25.17;;;17.07;;
13683;SDS011;6914;53.552;9.908;2024-01-30T07:22:51;21.77;;;17.63;;
13683;SDS011;6914;53.552;9.908;2024-01-30T07:25:20;25.37;;;16.17;;
13683;SDS011;6914;53.552;9.908;2024-01-30T07:27:51;34.30;;;16.13;;
13683;SDS011;6914;53.552;9.908;2024-01-30T07:30:18;26.63;;;17.20;;
13683;SDS011;6914;53.552;9.908;2024-01-30T07:32:47;24.73;;;17.23;;
13683;SDS011;6914;53.552;9.908;2024-01-30T07:35:14;24.60;;;18.97;;
13683;SDS011;6914;53.552;9.908;2024-01-30T07:37:41;19.27;;;15.63;;
13683;SDS011;6914;53.552;9.908;2024-01-30T07:40:08;32.37;;;17.80;;
13683;SDS011;6914;53.552;9.908;2024-01-30T07:42:35;28.27;;;18.97;;
13683;SDS011;6914;53.552;9.908;2024-01-30T07:45:02;24.40;;;17.23;;
13683;SDS011;6914;53.552;9.908;2024-01-30T07:47:29;27.00;;;17.07;;
13683;SDS011;6914;53.552;9.908;2024-01-30T07:49:57;21.23;;;16.77;;
13683;SDS011;6914;53.552;9.908;2024-01-30T07:52:24;35.37;;;16.33;;
13683;SDS011;6914;53.552;9.908;2024-01-30T07:54:51;30.97;;;18.17;;
13683;SDS011;6914;53.552;9.908;2024-01-30T07:57:18;35.33;;;17.17;;
13683;SDS011;6914;53.552;9.908;2024-01-30T07:59:46;28.10;;;17.80;;
13683;SDS011;6914;53.552;9.908;2024-01-30T08:02:13;31.87;;;17.43;;
13683;SDS011;6914;53.552;9.908;2024-01-30T08:04:40;28.47;;;17.03;;
13683;SDS011;6914;53.552;9.908;2024-01-30T08:07:08;28.57;;;17.27;;
13683;SDS011;6914;53.552;9.908;2024-01-30T08:09:35;25.40;;;18.20;;
13683;SDS011;6914;53.552;9.908;2024-01-30T08:12:02;23.83;;;17.80;;
13683;SDS011;6914;53.552;9.908;2024-01-30T08:14:29;29.23;;;17.27;;
13683;SDS011;6914;53.552;9.908;2024-01-30T08:16:57;29.13;;;17.27;;
13683;SDS011;6914;53.552;9.908;2024-01-30T08:19:24;28.50;;;17.63;;
13683;SDS011;6914;53.552;9.908;2024-01-30T08:21:51;27.07;;;17.63;;
13683;SDS011;6914;53.552;9.908;2024-01-30T08:24:19;23.70;;;17.07;;
13683;SDS011;6914;53.552;9.908;2024-01-30T08:26:46;34.80;;;19.70;;
13683;SDS011;6914;53.552;9.908;2024-01-30T08:29:13;29.70;;;18.17;;
13683;SDS011;6914;53.552;9.908;2024-01-30T08:31:39;26.70;;;16.37;;
13683;SDS011;6914;53.552;9.908;2024-01-30T08:34:06;24.07;;;17.00;;
13683;SDS011;6914;53.552;9.908;2024-01-30T08:36:33;25.00;;;19.23;;
13683;SDS011;6914;53.552;9.908;2024-01-30T08:39:02;28.10;;;17.83;;
13683;SDS011;6914;53.552;9.908;2024-01-30T08:41:31;23.30;;;18.40;;
13683;SDS011;6914;53.552;9.908;2024-01-30T08:43:58;28.80;;;19.70;;
13683;SDS011;6914;53.552;9.908;2024-01-30T08:46:25;27.67;;;18.30;;
13683;SDS011;6914;53.552;9.908;2024-01-30T08:48:52;27.50;;;19.07;;
13683;SDS011;6914;53.552;9.908;2024-01-30T08:51:20;27.83;;;18.60;;
13683;SDS011;6914;53.552;9.908;2024-01-30T08:53:47;29.23;;;18.47;;
13683;SDS011;6914;53.552;9.908;2024-01-30T08:56:14;27.90;;;19.80;;
13683;SDS011;6914;53.552;9.908;2024-01-30T08:58:42;27.77;;;17.93;;
13683;SDS011;6914;53.552;9.908;2024-01-30T09:01:09;25.27;;;18.17;;
13683;SDS011;6914;53.552;9.908;2024-01-30T09:03:36;27.17;;;18.80;;
13683;SDS011;6914;53.552;9.908;2024-01-30T09:06:07;36.30;;;19.63;;
13683;SDS011;6914;53.552;9.908;2024-01-30T09:08:36;34.63;;;17.23;;
13683;SDS011;6914;53.552;9.908;2024-01-30T09:11:08;25.87;;;16.90;;
13683;SDS011;6914;53.552;9.908;2024-01-30T09:13:35;22.80;;;18.10;;
13683;SDS011;6914;53.552;9.908;2024-01-30T09:16:04;25.40;;;17.03;;
13683;SDS011;6914;53.552;9.908;2024-01-30T09:18:31;29.07;;;18.27;;
13683;SDS011;6914;53.552;9.908;2024-01-30T09:20:58;25.63;;;17.00;;
13683;SDS011;6914;53.552;9.908;2024-01-30T09:23:26;25.83;;;18.43;;
13683;SDS011;6914;53.552;9.908;2024-01-30T09:25:55;28.60;;;17.37;;
13683;SDS011;6914;53.552;9.908;2024-01-30T09:28:22;26.20;;;18.30;;
13683;SDS011;6914;53.552;9.908;2024-01-30T09:30:48;27.07;;;18.40;;
13683;SDS011;6914;53.552;9.908;2024-01-30T09:33:17;28.00;;;18.43;;
13683;SDS011;6914;53.552;9.908;2024-01-30T09:35:43;24.73;;;15.60;;
13683;SDS011;6914;53.552;9.908;2024-01-30T09:38:10;19.37;;;15.67;;
13683;SDS011;6914;53.552;9.908;2024-01-30T09:40:37;22.00;;;16.73;;
13683;SDS011;6914;53.552;9.908;2024-01-30T09:43:04;22.90;;;16.33;;
13683;SDS011;6914;53.552;9.908;2024-01-30T09:45:31;24.97;;;17.50;;
13683;SDS011;6914;53.552;9.908;2024-01-30T09:48:00;26.20;;;17.20;;
13683;SDS011;6914;53.552;9.908;2024-01-30T09:50:33;38.33;;;16.33;;
13683;SDS011;6914;53.552;9.908;2024-01-30T09:53:02;26.33;;;17.83;;
13683;SDS011;6914;53.552;9.908;2024-01-30T09:55:31;28.30;;;17.57;;
13683;SDS011;6914;53.552;9.908;2024-01-30T09:57:58;49.83;;;16.20;;
13683;SDS011;6914;53.552;9.908;2024-01-30T10:00:25;26.77;;;16.63;;
13683;SDS011;6914;53.552;9.908;2024-01-30T10:02:52;21.57;;;15.63;;
13683;SDS011;6914;53.552;9.908;2024-01-30T10:05:20;21.90;;;16.27;;
13683;SDS011;6914;53.552;9.908;2024-01-30T10:07:52;21.50;;;16.13;;
13683;SDS011;6914;53.552;9.908;2024-01-30T10:10:21;25.43;;;15.30;;
13683;SDS011;6914;53.552;9.908;2024-01-30T10:12:48;25.80;;;15.90;;
13683;SDS011;6914;53.552;9.908;2024-01-30T10:15:15;23.90;;;18.43;;
13683;SDS011;6914;53.552;9.908;2024-01-30T10:17:43;24.47;;;16.97;;
13683;SDS011;6914;53.552;9.908;2024-01-30T10:20:11;33.43;;;16.57;;
13683;SDS011;6914;53.552;9.908;2024-01-30T10:22:39;25.30;;;17.07;;
13683;SDS011;6914;53.552;9.908;2024-01-30T10:25:09;22.73;;;16.60;;
13683;SDS011;6914;53.552;9.908;2024-01-30T10:27:36;23.90;;;17.10;;
13683;SDS011;6914;53.552;9.908;2024-01-30T10:30:03;23.90;;;16.60;;
13683;SDS011;6914;53.552;9.908;2024-01-30T10:32:30;25.40;;;16.80;;
13683;SDS011;6914;53.552;9.908;2024-01-30T10:34:57;23.77;;;16.13;;
13683;SDS011;6914;53.552;9.908;2024-01-30T10:37:25;24.70;;;16.20;;
13683;SDS011;6914;53.552;9.908;2024-01-30T10:39:56;26.00;;;17.10;;
13683;SDS011;6914;53.552;9.908;2024-01-30T10:42:31;27.00;;;17.80;;
13683;SDS011;6914;53.552;9.908;2024-01-30T10:45:00;33.20;;;17.20;;
13683;SDS011;6914;53.552;9.908;2024-01-30T10:47:30;24.33;;;16.23;;
13683;SDS011;6914;53.552;9.908;2024-01-30T10:49:56;24.03;;;17.93;;
13683;SDS011;6914;53.552;9.908;2024-01-30T10:52:28;26.60;;;17.30;;
13683;SDS011;6914;53.552;9.908;2024-01-30T10:54:56;25.23;;;16.53;;
13683;SDS011;6914;53.552;9.908;2024-01-30T10:57:23;28.90;;;16.50;;
13683;SDS011;6914;53.552;9.908;2024-01-30T10:59:52;20.83;;;16.47;;
13683;SDS011;6914;53.552;9.908;2024-01-30T11:02:21;16.97;;;14.87;;
13683;SDS011;6914;53.552;9.908;2024-01-30T11:04:49;25.03;;;15.00;;
13683;SDS011;6914;53.552;9.908;2024-01-30T11:07:17;20.57;;;14.40;;
13683;SDS011;6914;53.552;9.908;2024-01-30T11:09:49;27.43;;;15.37;;
13683;SDS011;6914;53.552;9.908;2024-01-30T11:12:16;16.27;;;14.43;;
13683;SDS011;6914;53.552;9.908;2024-01-30T11:14:48;22.23;;;14.10;;
13683;SDS011;6914;53.552;9.908;2024-01-30T11:17:16;34.40;;;16.10;;
13683;SDS011;6914;53.552;9.908;2024-01-30T11:19:43;24.60;;;14.03;;
13683;SDS011;6914;53.552;9.908;2024-01-30T11:22:11;19.73;;;13.90;;
13683;SDS011;6914;53.552;9.908;2024-01-30T11:24:41;16.50;;;13.03;;
13683;SDS011;6914;53.552;9.908;2024-01-30T11:27:08;29.40;;;13.87;;
13683;SDS011;6914;53.552;9.908;2024-01-30T11:29:35;15.07;;;13.23;;
13683;SDS011;6914;53.552;9.908;2024-01-30T11:32:02;17.60;;;12.23;;
13683;SDS011;6914;53.552;9.908;2024-01-30T11:34:31;18.47;;;12.90;;
13683;SDS011;6914;53.552;9.908;2024-01-30T11:37:02;30.33;;;13.90;;
13683;SDS011;6914;53.552;9.908;2024-01-30T11:39:30;12.63;;;11.30;;
13683;SDS011;6914;53.552;9.908;2024-01-30T11:41:57;17.73;;;12.87;;
13683;SDS011;6914;53.552;9.908;2024-01-30T11:44:25;21.00;;;12.80;;
13683;SDS011;6914;53.552;9.908;2024-01-30T11:46:52;18.70;;;13.27;;
13683;SDS011;6914;53.552;9.908;2024-01-30T11:49:19;17.40;;;11.87;;
13683;SDS011;6914;53.552;9.908;2024-01-30T11:51:48;18.23;;;13.40;;
13683;SDS011;6914;53.552;9.908;2024-01-30T11:54:15;14.77;;;12.30;;
13683;SDS011;6914;53.552;9.908;2024-01-30T11:56:42;23.17;;;12.67;;
13683;SDS011;6914;53.552;9.908;2024-01-30T11:59:09;17.43;;;12.40;;
13683;SDS011;6914;53.552;9.908;2024-01-30T12:01:37;17.63;;;12.10;;
13683;SDS011;6914;53.552;9.908;2024-01-30T12:04:04;16.40;;;13.40;;
13683;SDS011;6914;53.552;9.908;2024-01-30T12:06:34;16.40;;;13.30;;
13683;SDS011;6914;53.552;9.908;2024-01-30T12:09:03;20.70;;;12.50;;
13683;SDS011;6914;53.552;9.908;2024-01-30T12:11:30;15.73;;;12.87;;
13683;SDS011;6914;53.552;9.908;2024-01-30T12:13:58;13.20;;;11.60;;
13683;SDS011;6914;53.552;9.908;2024-01-30T12:16:25;14.93;;;11.87;;
13683;SDS011;6914;53.552;9.908;2024-01-30T12:18:59;17.50;;;11.63;;
13683;SDS011;6914;53.552;9.908;2024-01-30T12:21:27;15.10;;;12.10;;
13683;SDS011;6914;53.552;9.908;2024-01-30T12:23:54;18.03;;;12.60;;
13683;SDS011;6914;53.552;9.908;2024-01-30T12:26:23;21.90;;;13.27;;
13683;SDS011;6914;53.552;9.908;2024-01-30T12:28:50;15.10;;;12.57;;
13683;SDS011;6914;53.552;9.908;2024-01-30T12:31:18;25.90;;;13.43;;
13683;SDS011;6914;53.552;9.908;2024-01-30T12:33:45;15.90;;;11.80;;
13683;SDS011;6914;53.552;9.908;2024-01-30T12:36:15;13.33;;;11.43;;
13683;SDS011;6914;53.552;9.908;2024-01-30T12:38:43;17.30;;;12.30;;
13683;SDS011;6914;53.552;9.908;2024-01-30T12:41:10;14.43;;;12.80;;
13683;SDS011;6914;53.552;9.908;2024-01-30T12:43:39;18.60;;;12.27;;
13683;SDS011;6914;53.552;9.908;2024-01-30T12:46:07;16.20;;;12.40;;
13683;SDS011;6914;53.552;9.908;2024-01-30T12:48:34;17.10;;;12.17;;
13683;SDS011;6914;53.552;9.908;2024-01-30T12:51:01;22.23;;;12.83;;
13683;SDS011;6914;53.552;9.908;2024-01-30T12:53:28;19.30;;;13.37;;
13683;SDS011;6914;53.552;9.908;2024-01-30T12:55:55;16.13;;;11.90;;
13683;SDS011;6914;53.552;9.908;2024-01-30T12:58:23;17.73;;;12.43;;
13683;SDS011;6914;53.552;9.908;2024-01-30T13:00:52;15.60;;;12.23;;
13683;SDS011;6914;53.552;9.908;2024-01-30T13:03:20;14.40;;;12.67;;
13683;SDS011;6914;53.552;9.908;2024-01-30T13:05:47;15.43;;;12.07;;
13683;SDS011;6914;53.552;9.908;2024-01-30T13:08:14;23.07;;;12.30;;
13683;SDS011;6914;53.552;9.908;2024-01-30T13:10:41;15.63;;;12.30;;
13683;SDS011;6914;53.552;9.908;2024-01-30T13:13:08;21.47;;;12.67;;
13683;SDS011;6914;53.552;9.908;2024-01-30T13:15:35;17.50;;;12.40;;
13683;SDS011;6914;53.552;9.908;2024-01-30T13:18:05;21.67;;;13.07;;
13683;SDS011;6914;53.552;9.908;2024-01-30T13:20:32;14.87;;;12.20;;
13683;SDS011;6914;53.552;9.908;2024-01-30T13:22:59;23.43;;;12.27;;
13683;SDS011;6914;53.552;9.908;2024-01-30T13:25:26;17.13;;;12.20;;
13683;SDS011;6914;53.552;9.908;2024-01-30T13:27:53;23.20;;;13.90;;
13683;SDS011;6914;53.552;9.908;2024-01-30T13:30:20;18.10;;;13.23;;
13683;SDS011;6914;53.552;9.908;2024-01-30T13:32:48;13.60;;;12.20;;
13683;SDS011;6914;53.552;9.908;2024-01-30T13:35:16;16.03;;;13.50;;
13683;SDS011;6914;53.552;9.908;2024-01-30T13:37:43;16.63;;;13.07;;
13683;SDS011;6914;53.552;9.908;2024-01-30T13:40:12;14.60;;;12.17;;
13683;SDS011;6914;53.552;9.908;2024-01-30T13:42:41;19.20;;;13.37;;
13683;SDS011;6914;53.552;9.908;2024-01-30T13:45:08;17.53;;;12.87;;
13683;SDS011;6914;53.552;9.908;2024-01-30T13:47:36;19.27;;;13.20;;
13683;SDS011;6914;53.552;9.908;2024-01-30T13:50:03;17.83;;;13.03;;
13683;SDS011;6914;53.552;9.908;2024-01-30T13:52:31;17.50;;;12.43;;
13683;SDS011;6914;53.552;9.908;2024-01-30T13:54:58;24.20;;;13.70;;
13683;SDS011;6914;53.552;9.908;2024-01-30T13:57:26;16.80;;;11.63;;
13683;SDS011;6914;53.552;9.908;2024-01-30T13:59:53;18.20;;;12.53;;
13683;SDS011;6914;53.552;9.908;2024-01-30T14:02:20;18.50;;;12.80;;
13683;SDS011;6914;53.552;9.908;2024-01-30T14:04:47;19.37;;;12.53;;
13683;SDS011;6914;53.552;9.908;2024-01-30T14:07:14;17.00;;;13.80;;
13683;SDS011;6914;53.552;9.908;2024-01-30T14:09:44;20.90;;;13.27;;
13683;SDS011;6914;53.552;9.908;2024-01-30T14:12:11;18.47;;;12.20;;
13683;SDS011;6914;53.552;9.908;2024-01-30T14:14:39;15.00;;;12.33;;
13683;SDS011;6914;53.552;9.908;2024-01-30T14:17:06;18.80;;;11.67;;
13683;SDS011;6914;53.552;9.908;2024-01-30T14:19:33;17.63;;;12.30;;
13683;SDS011;6914;53.552;9.908;2024-01-30T14:22:00;18.60;;;12.30;;
13683;SDS011;6914;53.552;9.908;2024-01-30T14:24:27;24.67;;;12.40;;
13683;SDS011;6914;53.552;9.908;2024-01-30T14:26:56;17.23;;;11.67;;
13683;SDS011;6914;53.552;9.908;2024-01-30T14:29:24;21.10;;;14.20;;
13683;SDS011;6914;53.552;9.908;2024-01-30T14:31:51;14.83;;;12.90;;
13683;SDS011;6914;53.552;9.908;2024-01-30T14:34:20;22.53;;;13.07;;